Joven Antonia 2 — EA7642 — position and weather

sailwx.info

Track history (hours):
 
Tides and Currents Weather Stations Pressure Air Temp Water Temp Dewpoint Dewpoint Depression Visibility Wind Speed Wind Dir Waves Ship Positions

Joven Antonia 2

Last reported at 2018-Jun-19 14:00 UTC. Time now 2018-Jun-19 14:20 UTC.
Position N 38°53' E 001°25'.

Length 22 m; draft 2 m.

Type: Ship. MMSI: 224002340.

Date/timePositionNaut miles runAvg speedWind from/ knotsBaromVisibWave heightAir tempDewpointWater temp
2018-Jun-19 14:00N 38°53' E 001°25'0 0.0
2018-Jun-19 13:29N 38°53' E 001°25'0 0.9
2018-Jun-19 13:01N 38°54' E 001°25'2 1.2
2018-Jun-19 11:00N 38°51' E 001°25'2 4.3
2018-Jun-19 10:29N 38°54' E 001°25'2 1.3
2018-Jun-19 08:47N 38°51' E 001°25'2 7.9
2018-Jun-19 08:28N 38°54' E 001°25'0 0.5
2018-Jun-19 08:00N 38°54' E 001°25'0 0.1
2018-Jun-19 07:28N 38°54' E 001°25'0 0.0
2018-Jun-19 06:57N 38°54' E 001°25'0 0.0
2018-Jun-19 06:29N 38°54' E 001°25'0 0.0
2018-Jun-19 05:59N 38°54' E 001°25'0 0.0
2018-Jun-19 05:28N 38°54' E 001°25'0 0.0
2018-Jun-19 05:00N 38°54' E 001°25'0 0.0
2018-Jun-19 04:29N 38°54' E 001°25'0 0.0
2018-Jun-19 03:59N 38°54' E 001°25'0 0.0
2018-Jun-19 03:28N 38°54' E 001°25'0 0.0
2018-Jun-19 02:58N 38°54' E 001°25'0 0.0
2018-Jun-19 02:27N 38°54' E 001°25'0 0.0
2018-Jun-19 01:55N 38°54' E 001°25'0 0.0
2018-Jun-19 01:28N 38°54' E 001°25'0 0.0
2018-Jun-19 01:00N 38°54' E 001°25'0 0.0
2018-Jun-19 00:23N 38°54' E 001°25'0 0.0
2018-Jun-18 23:55N 38°54' E 001°25'0 0.0
2018-Jun-18 23:29N 38°54' E 001°25'0 0.0
2018-Jun-18 22:59N 38°54' E 001°25'0 0.0
2018-Jun-18 22:25N 38°54' E 001°25'0 0.0
2018-Jun-18 21:59N 38°54' E 001°25'0 0.0
2018-Jun-18 21:28N 38°54' E 001°25'0 0.9
2018-Jun-18 20:56N 38°54' E 001°25'1 2.1
2018-Jun-18 20:29N 38°53' E 001°25'3 1.8
2018-Jun-18 18:52N 38°50' E 001°25'3 6.7
2018-Jun-18 18:24N 38°54' E 001°25'2 0.2
2018-Jun-18 10:51N 38°52' E 001°25'1 0.3
2018-Jun-18 08:40N 38°53' E 001°25'1 3.6
2018-Jun-18 08:23N 38°54' E 001°25'0 0.4
2018-Jun-18 07:59N 38°54' E 001°25'0 0.0
2018-Jun-18 07:23N 38°54' E 001°25'0 0.0
2018-Jun-18 04:40N 38°54' E 001°25'0 0.0
2018-Jun-18 02:26N 38°54' E 001°25'0 0.0
2018-Jun-18 00:24N 38°54' E 001°25'0 0.0
2018-Jun-17 22:12N 38°54' E 001°25'0 0.0
2018-Jun-17 21:18N 38°54' E 001°25'1 0.6
2018-Jun-17 18:54N 38°52' E 001°25'1 0.3
2018-Jun-17 16:48N 38°52' E 001°25'2 0.1
2018-Jun-16 18:59N 38°54' E 001°26'0 0.8
2018-Jun-16 18:30N 38°54' E 001°25'8 1.2
2018-Jun-16 11:26N 38°45' E 001°25'811.0
2018-Jun-16 10:44N 38°53' E 001°25'0 1.6
2018-Jun-16 10:28N 38°54' E 001°25'0 0.0
2018-Jun-15 18:33N 38°54' E 001°25'0 7.6
2018-Jun-15 18:29N 38°53' E 001°25'611.3
2018-Jun-15 17:56N 38°47' E 001°25'3 6.4
2018-Jun-15 17:28N 38°44' E 001°25'10 0.5
2018-Jun-14 21:49N 38°54' E 001°25'0 0.0
2018-Jun-14 21:27N 38°54' E 001°25'0 0.0
2018-Jun-14 21:00N 38°54' E 001°25'0 0.0
2018-Jun-14 20:30N 38°54' E 001°25'0 0.0
2018-Jun-14 19:57N 38°54' E 001°25'0 0.0
2018-Jun-14 19:28N 38°54' E 001°25'0 0.1
2018-Jun-14 18:56N 38°54' E 001°25'0 0.5
2018-Jun-14 18:30N 38°54' E 001°25'4 2.3
2018-Jun-14 16:55N 38°50' E 001°25'4 7.4
2018-Jun-14 16:25N 38°54' E 001°25'1 1.4
2018-Jun-14 15:58N 38°53' E 001°25'0 0.1
2018-Jun-14 15:26N 38°53' E 001°25'0 0.0
2018-Jun-14 15:00N 38°53' E 001°25'0 0.0
2018-Jun-14 14:23N 38°53' E 001°25'0 0.0
2018-Jun-14 13:58N 38°53' E 001°25'0 0.0
2018-Jun-14 13:29N 38°53' E 001°25'1 1.1
2018-Jun-14 12:56N 38°54' E 001°25'2 0.9
2018-Jun-14 10:56N 38°52' E 001°25'1 3.3
2018-Jun-14 10:30N 38°53' E 001°25'2 1.1
2018-Jun-14 08:48N 38°52' E 001°25'2 6.6
2018-Jun-14 08:28N 38°54' E 001°25'1 1.6
2018-Jun-14 07:58N 38°54' E 001°26'1 2.1
2018-Jun-14 07:27N 38°55' E 001°26'1 3.0
2018-Jun-14 06:59N 38°54' E 001°25'0 0.0
2018-Jun-14 06:28N 38°54' E 001°25'0 0.0
2018-Jun-13 21:35N 38°54' E 001°25'0 0.0
2018-Jun-13 21:30N 38°54' E 001°25'0 0.0
2018-Jun-13 20:56N 38°54' E 001°25'0 0.0
2018-Jun-13 19:32N 38°54' E 001°25'0 0.0
2018-Jun-13 19:22N 38°54' E 001°25'0 1.0
2018-Jun-13 18:59N 38°54' E 001°26'3 1.7
2018-Jun-13 16:59N 38°51' E 001°25'3 4.1
2018-Jun-13 16:17N 38°54' E 001°25'0 1.1
2018-Jun-13 15:50N 38°53' E 001°25'0 0.2
2018-Jun-13 15:28N 38°53' E 001°25'0 0.0
2018-Jun-13 14:23N 38°53' E 001°25'0 0.0
2018-Jun-13 14:00N 38°53' E 001°25'0 0.1
2018-Jun-13 13:28N 38°53' E 001°25'0 0.2
2018-Jun-13 12:49N 38°53' E 001°25'0 0.1
2018-Jun-13 08:10N 38°54' E 001°25'0 0.0
2018-Jun-13 06:30N 38°54' E 001°25'0 0.0
2018-Jun-13 05:59N 38°54' E 001°25'0 0.0
2018-Jun-13 03:52N 38°54' E 001°25'0 0.0
2018-Jun-13 03:26N 38°54' E 001°25'0 0.0
2018-Jun-13 03:00N 38°54' E 001°25'0 0.0
2018-Jun-12 23:31N 38°54' E 001°25'0 0.0
2018-Jun-12 22:47N 38°54' E 001°25'0 0.0
2018-Jun-12 08:14N 38°54' E 001°25'0 0.0
2018-Jun-12 06:02N 38°54' E 001°25'0 0.0
2018-Jun-12 06:00N 38°54' E 001°25'0 0.0
2018-Jun-12 05:28N 38°54' E 001°25'0 0.0
2018-Jun-12 04:59N 38°54' E 001°25'0 0.0
2018-Jun-12 04:28N 38°54' E 001°25'0 0.0
2018-Jun-12 04:00N 38°54' E 001°25'0 0.0
2018-Jun-12 03:28N 38°54' E 001°25'0 0.0
2018-Jun-12 03:00N 38°54' E 001°25'0 0.0
2018-Jun-12 02:30N 38°54' E 001°25'0 0.0
2018-Jun-12 02:00N 38°54' E 001°25'0 0.0
2018-Jun-12 01:28N 38°54' E 001°25'0 0.0
2018-Jun-12 00:50N 38°54' E 001°25'0 0.0
2018-Jun-12 00:26N 38°54' E 001°25'0 0.0
2018-Jun-11 23:59N 38°54' E 001°25'0 0.0
2018-Jun-11 23:30N 38°54' E 001°25'0 0.0
2018-Jun-11 22:56N 38°54' E 001°25'0 0.0
2018-Jun-11 22:26N 38°54' E 001°25'0 0.0
2018-Jun-11 21:56N 38°54' E 001°25'0 0.0
2018-Jun-11 21:29N 38°54' E 001°25'0 0.7
2018-Jun-11 20:57N 38°54' E 001°26'2 1.0
2018-Jun-11 18:45N 38°52' E 001°25'2 4.5
2018-Jun-11 18:23N 38°53' E 001°25'1 0.2
2018-Jun-11 08:47N 38°52' E 001°25'2 5.8
2018-Jun-11 08:28N 38°54' E 001°25'0 0.5
2018-Jun-11 08:00N 38°54' E 001°25'0 0.0
2018-Jun-11 07:30N 38°54' E 001°25'0 0.0
2018-Jun-11 06:58N 38°54' E 001°25'0 0.0
2018-Jun-11 06:30N 38°54' E 001°25'0 0.0
2018-Jun-11 06:00N 38°54' E 001°25'0 0.0
2018-Jun-11 05:29N 38°54' E 001°25'0 0.0
2018-Jun-11 04:52N 38°54' E 001°25'0 0.0
2018-Jun-11 04:25N 38°54' E 001°25'0 0.0
2018-Jun-11 03:53N 38°54' E 001°25'0 0.0
2018-Jun-11 03:29N 38°54' E 001°25'0 0.0
2018-Jun-11 02:58N 38°54' E 001°25'0 0.0
2018-Jun-11 02:28N 38°54' E 001°25'0 0.0
2018-Jun-11 01:53N 38°54' E 001°25'0 0.0
2018-Jun-11 01:20N 38°54' E 001°25'0 0.0
2018-Jun-11 00:43N 38°54' E 001°25'0 0.0
2018-Jun-11 00:27N 38°54' E 001°25'0 0.0
2018-Jun-11 00:00N 38°54' E 001°25'0 0.0
2018-Jun-10 23:27N 38°54' E 001°25'0 0.0
2018-Jun-10 23:00N 38°54' E 001°25'0 0.0
2018-Jun-10 22:30N 38°54' E 001°25'0 0.0
2018-Jun-10 22:00N 38°54' E 001°25'0 0.0
2018-Jun-10 21:27N 38°54' E 001°25'0 0.0
2018-Jun-10 20:59N 38°54' E 001°25'0 0.2
2018-Jun-10 20:30N 38°54' E 001°25'3 1.4
2018-Jun-10 18:38N 38°51' E 001°25'111.2
2018-Jun-10 18:30N 38°52' E 001°25'1 0.1
2018-Jun-10 10:57N 38°52' E 001°25'2 0.5
2018-Jun-10 07:09N 38°54' E 001°25'0 0.0
2018-Jun-10 06:59N 38°54' E 001°25'0 0.0
2018-Jun-10 06:09N 38°54' E 001°25'0 0.0
2018-Jun-10 05:59N 38°54' E 001°25'0 0.0
2018-Jun-10 05:28N 38°54' E 001°25'0 0.0
2018-Jun-10 04:54N 38°54' E 001°25'0 0.0
2018-Jun-10 04:28N 38°54' E 001°25'0 0.0
2018-Jun-10 03:56N 38°54' E 001°25'0 0.0
2018-Jun-10 03:28N 38°54' E 001°25'0 0.0
2018-Jun-10 02:59N 38°54' E 001°25'0 0.0
2018-Jun-10 02:24N 38°54' E 001°25'0 0.0
2018-Jun-10 02:00N 38°54' E 001°25'0 0.0
2018-Jun-10 01:30N 38°54' E 001°25'0 0.0
2018-Jun-10 00:57N 38°54' E 001°25'0 0.0
2018-Jun-10 00:28N 38°54' E 001°25'0 0.0
2018-Jun-09 23:58N 38°54' E 001°25'0 0.0
2018-Jun-09 23:27N 38°54' E 001°25'0 0.0
2018-Jun-09 23:00N 38°54' E 001°25'0 0.0
2018-Jun-09 22:27N 38°54' E 001°25'0 0.0
2018-Jun-09 21:58N 38°54' E 001°25'0 0.0
2018-Jun-09 21:29N 38°54' E 001°25'0 0.0
2018-Jun-09 20:57N 38°54' E 001°25'0 0.3
2018-Jun-09 20:28N 38°54' E 001°25'0 0.0
2018-Jun-09 17:36N 38°54' E 001°25'0 0.0
2018-Jun-09 17:13N 38°54' E 001°25'1 0.2
2018-Jun-09 14:59N 38°53' E 001°25'0 0.0
2018-Jun-09 14:22N 38°53' E 001°25'  
Track history (hours):
 
Tides and Currents Weather Stations Pressure Air Temp Water Temp Dewpoint Dewpoint Depression Visibility Wind Speed Wind Dir Waves Ship Positions

Joven Antonia 2

Last reported at 2018-Jun-19 14:00 UTC. Time now 2018-Jun-19 14:20 UTC.
Position N 38°53' E 001°25'.

Length 22 m; draft 2 m.

Type: Ship. MMSI: 224002340.

Date/timePositionNaut miles runAvg speedWind from/ knotsBaromVisibWave heightAir tempDewpointWater temp
2018-Jun-19 14:00N 38°53' E 001°25'0 0.0
2018-Jun-19 13:29N 38°53' E 001°25'0 0.9
2018-Jun-19 13:01N 38°54' E 001°25'2 1.2
2018-Jun-19 11:00N 38°51' E 001°25'2 4.3
2018-Jun-19 10:29N 38°54' E 001°25'2 1.3
2018-Jun-19 08:47N 38°51' E 001°25'2 7.9
2018-Jun-19 08:28N 38°54' E 001°25'0 0.5
2018-Jun-19 08:00N 38°54' E 001°25'0 0.1
2018-Jun-19 07:28N 38°54' E 001°25'0 0.0
2018-Jun-19 06:57N 38°54' E 001°25'0 0.0
2018-Jun-19 06:29N 38°54' E 001°25'0 0.0
2018-Jun-19 05:59N 38°54' E 001°25'0 0.0
2018-Jun-19 05:28N 38°54' E 001°25'0 0.0
2018-Jun-19 05:00N 38°54' E 001°25'0 0.0
2018-Jun-19 04:29N 38°54' E 001°25'0 0.0
2018-Jun-19 03:59N 38°54' E 001°25'0 0.0
2018-Jun-19 03:28N 38°54' E 001°25'0 0.0
2018-Jun-19 02:58N 38°54' E 001°25'0 0.0
2018-Jun-19 02:27N 38°54' E 001°25'0 0.0
2018-Jun-19 01:55N 38°54' E 001°25'0 0.0
2018-Jun-19 01:28N 38°54' E 001°25'0 0.0
2018-Jun-19 01:00N 38°54' E 001°25'0 0.0
2018-Jun-19 00:23N 38°54' E 001°25'0 0.0
2018-Jun-18 23:55N 38°54' E 001°25'0 0.0
2018-Jun-18 23:29N 38°54' E 001°25'0 0.0
2018-Jun-18 22:59N 38°54' E 001°25'0 0.0
2018-Jun-18 22:25N 38°54' E 001°25'0 0.0
2018-Jun-18 21:59N 38°54' E 001°25'0 0.0
2018-Jun-18 21:28N 38°54' E 001°25'0 0.9
2018-Jun-18 20:56N 38°54' E 001°25'1 2.1
2018-Jun-18 20:29N 38°53' E 001°25'3 1.8
2018-Jun-18 18:52N 38°50' E 001°25'3 6.7
2018-Jun-18 18:24N 38°54' E 001°25'2 0.2
2018-Jun-18 10:51N 38°52' E 001°25'1 0.3
2018-Jun-18 08:40N 38°53' E 001°25'1 3.6
2018-Jun-18 08:23N 38°54' E 001°25'0 0.4
2018-Jun-18 07:59N 38°54' E 001°25'0 0.0
2018-Jun-18 07:23N 38°54' E 001°25'0 0.0
2018-Jun-18 04:40N 38°54' E 001°25'0 0.0
2018-Jun-18 02:26N 38°54' E 001°25'0 0.0
2018-Jun-18 00:24N 38°54' E 001°25'0 0.0
2018-Jun-17 22:12N 38°54' E 001°25'0 0.0
2018-Jun-17 21:18N 38°54' E 001°25'1 0.6
2018-Jun-17 18:54N 38°52' E 001°25'1 0.3
2018-Jun-17 16:48N 38°52' E 001°25'2 0.1
2018-Jun-16 18:59N 38°54' E 001°26'0 0.8
2018-Jun-16 18:30N 38°54' E 001°25'8 1.2
2018-Jun-16 11:26N 38°45' E 001°25'811.0
2018-Jun-16 10:44N 38°53' E 001°25'0 1.6
2018-Jun-16 10:28N 38°54' E 001°25'0 0.0
2018-Jun-15 18:33N 38°54' E 001°25'0 7.6
2018-Jun-15 18:29N 38°53' E 001°25'611.3
2018-Jun-15 17:56N 38°47' E 001°25'3 6.4
2018-Jun-15 17:28N 38°44' E 001°25'10 0.5
2018-Jun-14 21:49N 38°54' E 001°25'0 0.0
2018-Jun-14 21:27N 38°54' E 001°25'0 0.0
2018-Jun-14 21:00N 38°54' E 001°25'0 0.0
2018-Jun-14 20:30N 38°54' E 001°25'0 0.0
2018-Jun-14 19:57N 38°54' E 001°25'0 0.0
2018-Jun-14 19:28N 38°54' E 001°25'0 0.1
2018-Jun-14 18:56N 38°54' E 001°25'0 0.5
2018-Jun-14 18:30N 38°54' E 001°25'4 2.3
2018-Jun-14 16:55N 38°50' E 001°25'4 7.4
2018-Jun-14 16:25N 38°54' E 001°25'1 1.4
2018-Jun-14 15:58N 38°53' E 001°25'0 0.1
2018-Jun-14 15:26N 38°53' E 001°25'0 0.0
2018-Jun-14 15:00N 38°53' E 001°25'0 0.0
2018-Jun-14 14:23N 38°53' E 001°25'0 0.0
2018-Jun-14 13:58N 38°53' E 001°25'0 0.0
2018-Jun-14 13:29N 38°53' E 001°25'1 1.1
2018-Jun-14 12:56N 38°54' E 001°25'2 0.9
2018-Jun-14 10:56N 38°52' E 001°25'1 3.3
2018-Jun-14 10:30N 38°53' E 001°25'2 1.1
2018-Jun-14 08:48N 38°52' E 001°25'2 6.6
2018-Jun-14 08:28N 38°54' E 001°25'1 1.6
2018-Jun-14 07:58N 38°54' E 001°26'1 2.1
2018-Jun-14 07:27N 38°55' E 001°26'1 3.0
2018-Jun-14 06:59N 38°54' E 001°25'0 0.0
2018-Jun-14 06:28N 38°54' E 001°25'0 0.0
2018-Jun-13 21:35N 38°54' E 001°25'0 0.0
2018-Jun-13 21:30N 38°54' E 001°25'0 0.0
2018-Jun-13 20:56N 38°54' E 001°25'0 0.0
2018-Jun-13 19:32N 38°54' E 001°25'0 0.0
2018-Jun-13 19:22N 38°54' E 001°25'0 1.0
2018-Jun-13 18:59N 38°54' E 001°26'3 1.7
2018-Jun-13 16:59N 38°51' E 001°25'3 4.1
2018-Jun-13 16:17N 38°54' E 001°25'0 1.1
2018-Jun-13 15:50N 38°53' E 001°25'0 0.2
2018-Jun-13 15:28N 38°53' E 001°25'0 0.0
2018-Jun-13 14:23N 38°53' E 001°25'0 0.0
2018-Jun-13 14:00N 38°53' E 001°25'0 0.1
2018-Jun-13 13:28N 38°53' E 001°25'0 0.2
2018-Jun-13 12:49N 38°53' E 001°25'0 0.1
2018-Jun-13 08:10N 38°54' E 001°25'0 0.0
2018-Jun-13 06:30N 38°54' E 001°25'0 0.0
2018-Jun-13 05:59N 38°54' E 001°25'0 0.0
2018-Jun-13 03:52N 38°54' E 001°25'0 0.0
2018-Jun-13 03:26N 38°54' E 001°25'0 0.0
2018-Jun-13 03:00N 38°54' E 001°25'0 0.0
2018-Jun-12 23:31N 38°54' E 001°25'0 0.0
2018-Jun-12 22:47N 38°54' E 001°25'0 0.0
2018-Jun-12 08:14N 38°54' E 001°25'0 0.0
2018-Jun-12 06:02N 38°54' E 001°25'0 0.0
2018-Jun-12 06:00N 38°54' E 001°25'0 0.0
2018-Jun-12 05:28N 38°54' E 001°25'0 0.0
2018-Jun-12 04:59N 38°54' E 001°25'0 0.0
2018-Jun-12 04:28N 38°54' E 001°25'0 0.0
2018-Jun-12 04:00N 38°54' E 001°25'0 0.0
2018-Jun-12 03:28N 38°54' E 001°25'0 0.0
2018-Jun-12 03:00N 38°54' E 001°25'0 0.0
2018-Jun-12 02:30N 38°54' E 001°25'0 0.0
2018-Jun-12 02:00N 38°54' E 001°25'0 0.0
2018-Jun-12 01:28N 38°54' E 001°25'0 0.0
2018-Jun-12 00:50N 38°54' E 001°25'0 0.0
2018-Jun-12 00:26N 38°54' E 001°25'0 0.0
2018-Jun-11 23:59N 38°54' E 001°25'0 0.0
2018-Jun-11 23:30N 38°54' E 001°25'0 0.0
2018-Jun-11 22:56N 38°54' E 001°25'0 0.0
2018-Jun-11 22:26N 38°54' E 001°25'0 0.0
2018-Jun-11 21:56N 38°54' E 001°25'0 0.0
2018-Jun-11 21:29N 38°54' E 001°25'0 0.7
2018-Jun-11 20:57N 38°54' E 001°26'2 1.0
2018-Jun-11 18:45N 38°52' E 001°25'2 4.5
2018-Jun-11 18:23N 38°53' E 001°25'1 0.2
2018-Jun-11 08:47N 38°52' E 001°25'2 5.8
2018-Jun-11 08:28N 38°54' E 001°25'0 0.5
2018-Jun-11 08:00N 38°54' E 001°25'0 0.0
2018-Jun-11 07:30N 38°54' E 001°25'0 0.0
2018-Jun-11 06:58N 38°54' E 001°25'0 0.0
2018-Jun-11 06:30N 38°54' E 001°25'0 0.0
2018-Jun-11 06:00N 38°54' E 001°25'0 0.0
2018-Jun-11 05:29N 38°54' E 001°25'0 0.0
2018-Jun-11 04:52N 38°54' E 001°25'0 0.0
2018-Jun-11 04:25N 38°54' E 001°25'0 0.0
2018-Jun-11 03:53N 38°54' E 001°25'0 0.0
2018-Jun-11 03:29N 38°54' E 001°25'0 0.0
2018-Jun-11 02:58N 38°54' E 001°25'0 0.0
2018-Jun-11 02:28N 38°54' E 001°25'0 0.0
2018-Jun-11 01:53N 38°54' E 001°25'0 0.0
2018-Jun-11 01:20N 38°54' E 001°25'0 0.0
2018-Jun-11 00:43N 38°54' E 001°25'0 0.0
2018-Jun-11 00:27N 38°54' E 001°25'0 0.0
2018-Jun-11 00:00N 38°54' E 001°25'0 0.0
2018-Jun-10 23:27N 38°54' E 001°25'0 0.0
2018-Jun-10 23:00N 38°54' E 001°25'0 0.0
2018-Jun-10 22:30N 38°54' E 001°25'0 0.0
2018-Jun-10 22:00N 38°54' E 001°25'0 0.0
2018-Jun-10 21:27N 38°54' E 001°25'0 0.0
2018-Jun-10 20:59N 38°54' E 001°25'0 0.2
2018-Jun-10 20:30N 38°54' E 001°25'3 1.4
2018-Jun-10 18:38N 38°51' E 001°25'111.2
2018-Jun-10 18:30N 38°52' E 001°25'1 0.1
2018-Jun-10 10:57N 38°52' E 001°25'2 0.5
2018-Jun-10 07:09N 38°54' E 001°25'0 0.0
2018-Jun-10 06:59N 38°54' E 001°25'0 0.0
2018-Jun-10 06:09N 38°54' E 001°25'0 0.0
2018-Jun-10 05:59N 38°54' E 001°25'0 0.0
2018-Jun-10 05:28N 38°54' E 001°25'0 0.0
2018-Jun-10 04:54N 38°54' E 001°25'0 0.0
2018-Jun-10 04:28N 38°54' E 001°25'0 0.0
2018-Jun-10 03:56N 38°54' E 001°25'0 0.0
2018-Jun-10 03:28N 38°54' E 001°25'0 0.0
2018-Jun-10 02:59N 38°54' E 001°25'0 0.0
2018-Jun-10 02:24N 38°54' E 001°25'0 0.0
2018-Jun-10 02:00N 38°54' E 001°25'0 0.0
2018-Jun-10 01:30N 38°54' E 001°25'0 0.0
2018-Jun-10 00:57N 38°54' E 001°25'0 0.0
2018-Jun-10 00:28N 38°54' E 001°25'0 0.0
2018-Jun-09 23:58N 38°54' E 001°25'0 0.0
2018-Jun-09 23:27N 38°54' E 001°25'0 0.0
2018-Jun-09 23:00N 38°54' E 001°25'0 0.0
2018-Jun-09 22:27N 38°54' E 001°25'0 0.0
2018-Jun-09 21:58N 38°54' E 001°25'0 0.0
2018-Jun-09 21:29N 38°54' E 001°25'0 0.0
2018-Jun-09 20:57N 38°54' E 001°25'0 0.3
2018-Jun-09 20:28N 38°54' E 001°25'0 0.0
2018-Jun-09 17:36N 38°54' E 001°25'0 0.0
2018-Jun-09 17:13N 38°54' E 001°25'1 0.2
2018-Jun-09 14:59N 38°53' E 001°25'0 0.0
2018-Jun-09 14:22N 38°53' E 001°25'  

Dump ship's entire track history